createdAt,value
2017-08-20T00:00:17.764Z,100842.05
2017-08-20T00:02:47.174Z,100837.72
2017-08-20T00:05:16.257Z,100840.86
2017-08-20T00:07:45.316Z,100836.41
2017-08-20T00:10:14.427Z,100838.52
2017-08-20T00:12:43.472Z,100839.69
2017-08-20T00:15:13.344Z,100841.23
2017-08-20T00:17:42.680Z,100840.71
2017-08-20T00:20:11.762Z,100838.15
2017-08-20T00:22:40.819Z,100836.95
2017-08-20T00:25:10.204Z,100830.36
2017-08-20T00:27:39.293Z,100834.24
2017-08-20T00:30:09.132Z,100829.73
2017-08-20T00:32:38.172Z,100836.35
2017-08-20T00:35:07.242Z,100840.05
2017-08-20T00:37:36.353Z,100841.08
2017-08-20T00:40:05.419Z,100842.62
2017-08-20T00:42:34.454Z,100847.10
2017-08-20T00:45:03.501Z,100847.33
2017-08-20T00:47:32.573Z,100843.73
2017-08-20T00:50:02.396Z,100845.50
2017-08-20T00:52:31.725Z,100850.18
2017-08-20T00:55:00.812Z,100851.55
2017-08-20T00:57:29.920Z,100843.39
2017-08-20T00:59:58.986Z,100851.55
2017-08-20T01:02:28.863Z,100841.00
2017-08-20T01:04:57.928Z,100854.28
2017-08-20T01:07:26.984Z,100848.87
2017-08-20T01:09:56.212Z,100851.95
2017-08-20T01:12:25.275Z,100851.47
2017-08-20T01:14:54.332Z,100848.89
2017-08-20T01:17:23.413Z,100855.86
2017-08-20T01:19:52.473Z,100858.65
2017-08-20T01:22:21.532Z,100857.28
2017-08-20T01:24:50.613Z,100856.88
2017-08-20T01:27:19.658Z,100859.48
2017-08-20T01:29:48.716Z,100865.58
2017-08-20T01:32:18.573Z,100863.47
2017-08-20T01:34:47.617Z,100862.95
2017-08-20T01:37:16.706Z,100868.17
2017-08-20T01:39:45.756Z,100873.30
2017-08-20T01:42:14.841Z,100868.55
2017-08-20T01:44:43.877Z,100869.20
2017-08-20T01:47:12.960Z,100879.47
2017-08-20T01:49:42.014Z,100877.33
2017-08-20T01:52:11.843Z,100872.51
2017-08-20T01:54:40.895Z,100876.88
2017-08-20T01:57:09.984Z,100876.59
2017-08-20T01:59:39.066Z,100879.18
2017-08-20T02:02:08.100Z,100872.51
2017-08-20T02:04:37.265Z,100873.88
2017-08-20T02:07:06.448Z,100873.36
2017-08-20T02:09:35.504Z,100883.61
2017-08-20T02:12:04.557Z,100883.45
2017-08-20T02:14:33.615Z,100890.97
2017-08-20T02:17:02.695Z,100886.86
2017-08-20T02:19:32.515Z,100891.50
2017-08-20T02:22:01.552Z,100884.91
2017-08-20T02:24:30.623Z,100895.13
2017-08-20T02:26:59.700Z,100892.33
2017-08-20T02:29:28.784Z,100890.39
2017-08-20T02:31:57.827Z,100900.69
2017-08-20T02:34:26.891Z,100891.59
2017-08-20T02:36:55.947Z,100892.98
2017-08-20T02:39:25.835Z,100895.30
2017-08-20T02:41:54.926Z,100892.08
2017-08-20T02:44:23.983Z,100892.41
2017-08-20T02:46:53.051Z,100894.19
2017-08-20T02:49:22.874Z,100882.38
2017-08-20T02:51:51.945Z,100877.41
2017-08-20T02:54:22.139Z,100873.88
2017-08-20T02:56:51.220Z,100877.53
2017-08-20T02:59:20.292Z,100874.79
2017-08-20T03:01:49.351Z,100871.83
2017-08-20T03:04:19.174Z,100883.59
2017-08-20T03:06:48.250Z,100883.34
2017-08-20T03:09:17.311Z,100883.22
2017-08-20T03:11:46.372Z,100884.67
2017-08-20T03:14:15.710Z,100888.28
2017-08-20T03:16:44.788Z,100897.13
2017-08-20T03:19:13.945Z,100897.72
2017-08-20T03:21:42.988Z,100890.31
2017-08-20T03:24:12.053Z,100901.66
2017-08-20T03:26:41.092Z,100897.87
2017-08-20T03:29:10.183Z,100897.64
2017-08-20T03:31:39.263Z,100896.11
2017-08-20T03:34:08.362Z,100898.27
2017-08-20T03:36:37.413Z,100896.84
2017-08-20T03:39:07.252Z,100898.69
2017-08-20T03:41:36.360Z,100893.44
2017-08-20T03:44:05.403Z,100894.59
2017-08-20T03:46:34.506Z,100891.81
2017-08-20T03:49:03.583Z,100890.80
2017-08-20T03:51:32.647Z,100888.46
2017-08-20T03:54:01.721Z,100895.58
2017-08-20T03:56:30.766Z,100894.44
2017-08-20T03:58:59.864Z,100901.86
2017-08-20T04:01:28.965Z,100900.83
2017-08-20T04:03:58.010Z,100906.63
2017-08-20T04:06:27.088Z,100912.06
2017-08-20T04:08:57.041Z,100908.63
2017-08-20T04:11:26.074Z,100910.46
2017-08-20T04:13:55.900Z,100911.42
2017-08-20T04:16:25.740Z,100916.89
2017-08-20T04:18:55.046Z,100920.33
2017-08-20T04:21:24.116Z,100918.83
2017-08-20T04:23:53.935Z,100922.75
2017-08-20T04:26:23.010Z,100921.23
2017-08-20T04:28:52.148Z,100923.62
2017-08-20T04:31:21.243Z,100924.20
2017-08-20T04:33:50.297Z,100932.34
2017-08-20T04:36:19.392Z,100927.33
2017-08-20T04:38:48.439Z,100933.60
2017-08-20T04:41:17.540Z,100938.55
2017-08-20T04:43:46.579Z,100942.88
2017-08-20T04:46:16.404Z,100940.84
2017-08-20T04:48:46.249Z,100948.52
2017-08-20T04:51:15.369Z,100948.75
2017-08-20T04:53:44.396Z,100949.21
2017-08-20T04:56:14.248Z,100942.93
2017-08-20T04:58:43.299Z,100954.28
2017-08-20T05:01:12.374Z,100953.14
2017-08-20T05:03:41.423Z,100951.71
2017-08-20T05:06:10.478Z,100961.63
2017-08-20T05:08:39.561Z,100962.98
2017-08-20T05:11:08.632Z,100960.82
2017-08-20T05:13:37.737Z,100963.85
2017-08-20T05:16:06.806Z,100970.45
2017-08-20T05:18:35.860Z,100970.23
2017-08-20T05:21:05.735Z,100980.49
2017-08-20T05:23:34.936Z,100968.85
2017-08-20T05:26:04.000Z,100969.55
2017-08-20T05:28:33.050Z,100970.68
2017-08-20T05:31:02.163Z,100969.03
2017-08-20T05:33:31.259Z,100972.95
2017-08-20T05:36:01.066Z,100962.91
2017-08-20T05:38:30.941Z,100954.77
2017-08-20T05:41:00.008Z,100960.38
2017-08-20T05:43:29.072Z,100960.03
2017-08-20T05:45:58.905Z,100968.56
2017-08-20T05:48:27.967Z,100971.20
2017-08-20T05:50:57.028Z,100976.03
2017-08-20T05:53:26.111Z,100970.06
2017-08-20T05:55:55.166Z,100974.42
2017-08-20T05:58:24.231Z,100968.73
2017-08-20T06:00:53.303Z,100967.60
2017-08-20T06:03:22.372Z,100971.80
2017-08-20T06:05:52.439Z,100972.47
2017-08-20T06:08:21.500Z,100979.78
2017-08-20T06:10:50.588Z,100968.20
2017-08-20T06:13:19.644Z,100975.27
2017-08-20T06:15:48.758Z,100979.67
2017-08-20T06:18:19.203Z,100977.59
2017-08-20T06:20:48.263Z,100980.22
2017-08-20T06:23:17.336Z,100986.25
2017-08-20T06:25:46.412Z,100991.38
2017-08-20T06:28:15.497Z,100996.37
2017-08-20T06:30:44.547Z,100997.34
2017-08-20T06:33:13.624Z,101003.02
2017-08-20T06:35:42.714Z,101003.83
2017-08-20T06:38:11.763Z,101012.38
2017-08-20T06:40:41.661Z,101019.73
2017-08-20T06:43:11.511Z,101015.74
2017-08-20T06:45:40.586Z,101021.28
2017-08-20T06:48:09.970Z,101023.27
2017-08-20T06:50:40.160Z,101027.94
2017-08-20T06:53:09.318Z,101027.30
2017-08-20T06:55:39.123Z,101027.08
2017-08-20T06:58:08.197Z,101028.45
2017-08-20T07:00:38.846Z,101031.02
2017-08-20T07:03:07.939Z,101034.19
2017-08-20T07:05:37.012Z,101031.73
2017-08-20T07:08:06.147Z,101039.59
2017-08-20T07:10:35.248Z,101039.45
2017-08-20T07:13:04.310Z,101045.20
2017-08-20T07:15:34.144Z,101044.27
2017-08-20T07:18:03.209Z,101046.23
2017-08-20T07:20:33.036Z,101048.30
2017-08-20T07:23:02.141Z,101049.72
2017-08-20T07:25:31.987Z,101052.00
2017-08-20T07:28:01.055Z,101047.30
2017-08-20T07:30:30.112Z,101053.89
2017-08-20T07:32:59.182Z,101052.34
2017-08-20T07:35:28.264Z,101049.06
2017-08-20T07:37:57.343Z,101054.23
2017-08-20T07:40:26.672Z,101057.57
2017-08-20T07:42:55.755Z,101056.77
2017-08-20T07:45:24.858Z,101060.48
2017-08-20T07:47:53.944Z,101061.75
2017-08-20T07:50:23.044Z,101068.70
2017-08-20T07:52:52.308Z,101060.41
2017-08-20T07:55:22.157Z,101071.53
2017-08-20T07:57:51.233Z,101064.69
2017-08-20T08:00:20.316Z,101070.84
2017-08-20T08:02:49.388Z,101070.63
2017-08-20T08:05:19.248Z,101073.16
2017-08-20T08:07:48.349Z,101071.45
2017-08-20T08:10:17.411Z,101071.85
2017-08-20T08:12:46.475Z,101076.92
2017-08-20T08:15:16.201Z,101074.23
2017-08-20T08:17:45.536Z,101077.50
2017-08-20T08:20:14.613Z,101070.05
2017-08-20T08:22:44.441Z,101083.33
2017-08-20T08:25:13.674Z,101082.73
2017-08-20T08:27:42.831Z,101084.58
2017-08-20T08:30:11.876Z,101085.41
2017-08-20T08:32:40.981Z,101094.69
2017-08-20T08:35:10.044Z,101090.09
2017-08-20T08:37:39.092Z,101096.88
2017-08-20T08:40:08.943Z,101097.28
2017-08-20T08:42:38.016Z,101090.38
2017-08-20T08:45:07.112Z,101100.83
2017-08-20T08:47:36.281Z,101106.02
2017-08-20T08:50:06.119Z,101093.84
2017-08-20T08:52:35.267Z,101099.31
2017-08-20T08:55:04.330Z,101095.33
2017-08-20T08:57:33.415Z,101095.80
2017-08-20T09:00:04.233Z,101092.61
2017-08-20T09:02:34.063Z,101092.76
2017-08-20T09:05:03.133Z,101087.72
2017-08-20T09:07:32.180Z,101087.03
2017-08-20T09:10:01.316Z,101087.50
2017-08-20T09:12:30.388Z,101096.56
2017-08-20T09:14:59.472Z,101093.70
2017-08-20T09:17:28.531Z,101098.81
2017-08-20T09:19:57.614Z,101091.22
2017-08-20T09:22:27.508Z,101104.69
2017-08-20T09:24:56.599Z,101099.70
2017-08-20T09:27:25.654Z,101101.22
2017-08-20T09:29:54.743Z,101107.08
2017-08-20T09:32:23.795Z,101103.78
2017-08-20T09:34:53.639Z,101102.59
2017-08-20T09:37:22.736Z,101111.00
2017-08-20T09:39:52.554Z,101110.12
2017-08-20T09:42:21.609Z,101105.21
2017-08-20T09:44:51.459Z,101104.44
2017-08-20T09:47:20.512Z,101104.97
2017-08-20T09:49:49.563Z,101105.27
2017-08-20T09:52:18.623Z,101103.98
2017-08-20T09:54:48.432Z,101110.16
2017-08-20T09:57:18.411Z,101109.95
2017-08-20T09:59:47.476Z,101104.37
2017-08-20T10:02:16.567Z,101105.34
2017-08-20T10:04:45.637Z,101110.45
2017-08-20T10:07:15.950Z,101106.91
2017-08-20T10:09:44.997Z,101104.80
2017-08-20T10:12:14.261Z,101106.47
2017-08-20T10:14:44.158Z,101097.77
2017-08-20T10:17:13.237Z,101103.97
2017-08-20T10:19:43.199Z,101097.95
2017-08-20T10:22:12.273Z,101105.14
2017-08-20T10:24:42.114Z,101110.43
2017-08-20T10:27:11.177Z,101107.75
2017-08-20T10:29:41.035Z,101115.36
2017-08-20T10:32:10.095Z,101113.88
2017-08-20T10:34:39.170Z,101116.44
2017-08-20T10:37:08.297Z,101108.26
2017-08-20T10:39:38.127Z,101108.26
2017-08-20T10:42:07.213Z,101108.91
2017-08-20T10:44:36.291Z,101103.48
2017-08-20T10:47:05.517Z,101105.91
2017-08-20T10:49:34.596Z,101112.58
2017-08-20T10:52:03.667Z,101109.33
2017-08-20T10:54:33.524Z,101108.05
2017-08-20T10:57:02.577Z,101114.55
2017-08-20T10:59:32.396Z,101106.77
2017-08-20T11:02:02.240Z,101106.10
2017-08-20T11:04:31.315Z,101109.26
2017-08-20T11:07:00.403Z,101108.85
2017-08-20T11:09:30.235Z,101110.70
2017-08-20T11:11:59.283Z,101104.98
2017-08-20T11:14:28.386Z,101103.24
2017-08-20T11:16:57.428Z,101105.39
2017-08-20T11:19:26.494Z,101103.97
2017-08-20T11:21:56.311Z,101101.63
2017-08-20T11:24:25.394Z,101104.42
2017-08-20T11:26:55.276Z,101116.53
2017-08-20T11:29:24.318Z,101117.36
2017-08-20T11:31:54.117Z,101110.25
2017-08-20T11:34:23.976Z,101115.24
2017-08-20T11:36:53.065Z,101111.63
2017-08-20T11:39:22.139Z,101107.41
2017-08-20T11:41:51.184Z,101114.48
2017-08-20T11:44:20.255Z,101103.75
2017-08-20T11:46:49.368Z,101118.11
2017-08-20T11:49:18.461Z,101117.59
2017-08-20T11:51:47.545Z,101116.84
2017-08-20T11:54:16.607Z,101124.99
2017-08-20T11:56:46.439Z,101113.72
2017-08-20T11:59:15.507Z,101114.41
2017-08-20T12:01:45.344Z,101111.01
2017-08-20T12:04:14.411Z,101112.97
2017-08-20T12:06:43.492Z,101112.79
2017-08-20T12:09:12.555Z,101118.13
2017-08-20T12:11:41.604Z,101126.03
2017-08-20T12:14:11.076Z,101129.73
2017-08-20T12:16:40.163Z,101134.00
2017-08-20T12:19:10.025Z,101138.72
2017-08-20T12:21:39.086Z,101141.38
2017-08-20T12:24:09.000Z,101141.46
2017-08-20T12:26:38.096Z,101151.44
2017-08-20T12:29:07.164Z,101146.91
2017-08-20T12:31:36.198Z,101148.53
2017-08-20T12:34:05.291Z,101139.23
2017-08-20T12:36:34.369Z,101137.34
2017-08-20T12:39:03.407Z,101140.83
2017-08-20T12:41:32.480Z,101135.94
2017-08-20T12:44:01.557Z,101141.85
2017-08-20T12:46:30.598Z,101138.23
2017-08-20T12:48:59.688Z,101147.30
2017-08-20T12:51:28.791Z,101142.45
2017-08-20T12:53:57.841Z,101136.27
2017-08-20T12:56:26.908Z,101138.75
2017-08-20T12:58:55.967Z,101137.92
2017-08-20T13:01:25.030Z,101146.78
2017-08-20T13:03:54.101Z,101148.41
2017-08-20T13:06:23.426Z,101146.13
2017-08-20T13:08:52.468Z,101150.34
2017-08-20T13:11:21.541Z,101146.84
2017-08-20T13:13:50.664Z,101147.41
2017-08-20T13:16:20.749Z,101145.83
2017-08-20T13:18:50.030Z,101135.75
2017-08-20T13:21:19.192Z,101141.61
2017-08-20T13:23:48.239Z,101138.97
2017-08-20T13:26:18.084Z,101129.00
2017-08-20T13:28:47.133Z,101127.17
2017-08-20T13:31:16.206Z,101119.20
2017-08-20T13:33:45.271Z,101116.09
2017-08-20T13:36:14.336Z,101121.08
2017-08-20T13:38:45.855Z,101108.59
2017-08-20T13:41:15.143Z,101111.48
2017-08-20T13:43:44.215Z,101111.05
2017-08-20T13:46:13.309Z,101113.38
2017-08-20T13:48:43.196Z,101103.78
2017-08-20T13:51:13.011Z,101107.13
2017-08-20T13:53:42.091Z,101106.55
2017-08-20T13:56:11.907Z,101106.16
2017-08-20T13:58:41.736Z,101111.89
2017-08-20T14:01:10.868Z,101108.44
2017-08-20T14:03:39.932Z,101112.89
2017-08-20T14:06:09.123Z,101109.20
2017-08-20T14:08:38.216Z,101106.84
2017-08-20T14:11:08.073Z,101109.69
2017-08-20T14:13:37.177Z,101109.29
2017-08-20T14:16:06.223Z,101113.95
2017-08-20T14:18:36.344Z,101120.59
2017-08-20T14:21:06.178Z,101124.05
2017-08-20T14:23:35.941Z,101120.88
2017-08-20T14:26:04.972Z,101123.89
2017-08-20T14:28:34.052Z,101143.89
2017-08-20T14:31:03.935Z,101147.69
2017-08-20T14:33:33.356Z,101146.84
2017-08-20T14:36:03.214Z,101150.34
2017-08-20T14:38:32.264Z,101146.59
2017-08-20T14:41:02.108Z,101153.47
2017-08-20T14:43:31.948Z,101159.84
2017-08-20T14:46:00.971Z,101156.02
2017-08-20T14:48:30.053Z,101153.31
2017-08-20T14:50:59.143Z,101150.39
2017-08-20T14:53:28.352Z,101139.69
2017-08-20T14:55:58.223Z,101137.73
2017-08-20T14:58:27.286Z,101138.72
2017-08-20T15:00:57.090Z,101128.14
2017-08-20T15:03:26.924Z,101125.84
2017-08-20T15:05:55.968Z,101128.59
2017-08-20T15:08:25.045Z,101128.08
2017-08-20T15:10:54.105Z,101126.42
2017-08-20T15:13:23.172Z,101121.78
2017-08-20T15:15:52.241Z,101108.19
2017-08-20T15:18:21.351Z,101115.16
2017-08-20T15:20:50.416Z,101118.34
2017-08-20T15:23:19.465Z,101121.01
2017-08-20T15:25:49.273Z,101127.78
2017-08-20T15:28:19.505Z,101133.17
2017-08-20T15:30:48.708Z,101133.70
2017-08-20T15:33:17.779Z,101141.45
2017-08-20T15:35:46.847Z,101136.05
2017-08-20T15:38:15.924Z,101137.62
2017-08-20T15:40:45.045Z,101135.59
2017-08-20T15:43:14.107Z,101137.95
2017-08-20T15:45:43.167Z,101140.56
2017-08-20T15:48:12.300Z,101148.34
2017-08-20T15:50:41.363Z,101137.59
2017-08-20T15:53:11.235Z,101142.43
2017-08-20T15:55:40.275Z,101141.93
2017-08-20T15:58:10.905Z,101144.16
2017-08-20T16:00:40.730Z,101142.39
2017-08-20T16:03:09.791Z,101140.88
2017-08-20T16:05:38.827Z,101148.12
2017-08-20T16:08:07.960Z,101141.53
2017-08-20T16:10:37.004Z,101132.63
2017-08-20T16:13:06.840Z,101125.76
2017-08-20T16:15:35.916Z,101126.70
2017-08-20T16:18:05.741Z,101129.25
2017-08-20T16:20:34.924Z,101127.35
2017-08-20T16:23:04.113Z,101133.30
2017-08-20T16:25:33.196Z,101135.78
2017-08-20T16:28:03.125Z,101133.88
2017-08-20T16:30:32.960Z,101135.63
2017-08-20T16:33:02.023Z,101130.72
2017-08-20T16:35:31.108Z,101133.45
2017-08-20T16:38:01.072Z,101140.06
2017-08-20T16:40:30.160Z,101133.75
2017-08-20T16:42:59.993Z,101138.37
2017-08-20T16:45:29.063Z,101134.27
2017-08-20T16:47:58.877Z,101129.95
2017-08-20T16:50:27.968Z,101134.48
2017-08-20T16:52:57.792Z,101133.93
2017-08-20T16:55:26.873Z,101124.86
2017-08-20T16:57:56.693Z,101136.28
2017-08-20T17:00:26.543Z,101127.59
2017-08-20T17:02:55.598Z,101126.95
2017-08-20T17:05:24.672Z,101127.09
2017-08-20T17:07:53.721Z,101124.09
2017-08-20T17:10:22.765Z,101127.40
2017-08-20T17:12:51.836Z,101119.80
2017-08-20T17:15:20.989Z,101123.70
2017-08-20T17:17:50.057Z,101122.73
2017-08-20T17:20:19.093Z,101125.02
2017-08-20T17:22:48.179Z,101125.32
2017-08-20T17:25:17.309Z,101125.52
2017-08-20T17:27:46.433Z,101123.34
2017-08-20T17:30:15.647Z,101124.67
2017-08-20T17:32:44.732Z,101119.20
2017-08-20T17:35:13.886Z,101120.00
2017-08-20T17:37:42.944Z,101126.36
2017-08-20T17:40:12.180Z,101123.61
2017-08-20T17:42:41.297Z,101131.03
2017-08-20T17:45:10.327Z,101129.66
2017-08-20T17:47:39.491Z,101121.02
2017-08-20T17:50:08.545Z,101120.59
2017-08-20T17:52:37.712Z,101123.67
2017-08-20T17:55:06.752Z,101124.25
2017-08-20T17:57:35.804Z,101130.38
2017-08-20T18:00:04.902Z,101134.73
2017-08-20T18:02:33.948Z,101132.81
2017-08-20T18:05:03.117Z,101138.50
2017-08-20T18:07:32.157Z,101145.16
2017-08-20T18:10:01.255Z,101150.09
2017-08-20T18:12:30.304Z,101154.84
2017-08-20T18:14:59.383Z,101151.17
2017-08-20T18:17:28.430Z,101153.39
2017-08-20T18:19:57.502Z,101160.16
2017-08-20T18:22:26.580Z,101164.61
2017-08-20T18:24:55.640Z,101172.25
2017-08-20T18:27:24.719Z,101172.83
2017-08-20T18:29:53.763Z,101171.66
2017-08-20T18:32:22.836Z,101174.61
2017-08-20T18:34:51.917Z,101179.68
2017-08-20T18:37:20.962Z,101180.14
2017-08-20T18:39:50.059Z,101189.11
2017-08-20T18:42:19.143Z,101192.17
2017-08-20T18:44:48.200Z,101193.25
2017-08-20T18:47:17.270Z,101195.42
2017-08-20T18:49:46.536Z,101199.23
2017-08-20T18:52:15.635Z,101202.53
2017-08-20T18:54:44.735Z,101203.60
2017-08-20T18:57:13.840Z,101206.45
2017-08-20T18:59:42.919Z,101210.67
2017-08-20T19:02:12.020Z,101213.13
2017-08-20T19:04:41.068Z,101221.95
2017-08-20T19:07:10.110Z,101224.61
2017-08-20T19:09:39.182Z,101221.12
2017-08-20T19:12:08.256Z,101224.52
2017-08-20T19:14:37.340Z,101218.50
2017-08-20T19:17:06.401Z,101224.58
2017-08-20T19:19:35.463Z,101216.78
2017-08-20T19:22:04.554Z,101228.34
2017-08-20T19:24:33.591Z,101224.80
2017-08-20T19:27:02.723Z,101235.57
2017-08-20T19:29:31.793Z,101238.09
2017-08-20T19:32:00.905Z,101233.87
2017-08-20T19:34:30.045Z,101228.02
2017-08-20T19:36:59.101Z,101232.22
2017-08-20T19:39:28.194Z,101240.69
2017-08-20T19:41:57.288Z,101246.70
2017-08-20T19:44:26.351Z,101249.72
2017-08-20T19:46:55.406Z,101252.68
2017-08-20T19:49:24.473Z,101252.81
2017-08-20T19:51:53.539Z,101259.67
2017-08-20T19:54:22.634Z,101258.45
2017-08-20T19:56:51.715Z,101262.41
2017-08-20T19:59:20.763Z,101262.12
2017-08-20T20:01:49.838Z,101258.04
2017-08-20T20:04:18.889Z,101260.59
2017-08-20T20:06:47.964Z,101258.94
2017-08-20T20:09:17.033Z,101262.35
2017-08-20T20:11:46.122Z,101263.36
2017-08-20T20:14:15.180Z,101272.45
2017-08-20T20:16:44.252Z,101272.74
2017-08-20T20:19:13.294Z,101272.80
2017-08-20T20:21:42.382Z,101266.66
2017-08-20T20:24:11.447Z,101273.02
2017-08-20T20:26:40.531Z,101271.45
2017-08-20T20:29:09.687Z,101265.23
2017-08-20T20:31:38.733Z,101266.75
2017-08-20T20:34:07.816Z,101259.19
2017-08-20T20:36:36.876Z,101261.89
2017-08-20T20:39:05.937Z,101258.00
2017-08-20T20:41:35.004Z,101253.73
2017-08-20T20:44:04.114Z,101260.30
2017-08-20T20:46:33.199Z,101258.95
2017-08-20T20:49:02.281Z,101261.46
2017-08-20T20:51:31.372Z,101266.39
2017-08-20T20:54:33.778Z,101265.15
2017-08-20T20:57:05.139Z,101272.55
2017-08-20T20:59:34.500Z,101271.26
2017-08-20T21:02:03.563Z,101273.21
2017-08-20T21:04:32.637Z,101274.86
2017-08-20T21:07:01.682Z,101279.70
2017-08-20T21:09:30.856Z,101279.07
2017-08-20T21:11:59.923Z,101272.70
2017-08-20T21:14:28.969Z,101268.75
2017-08-20T21:16:58.044Z,101265.16
2017-08-20T21:19:27.084Z,101275.76
2017-08-20T21:21:56.173Z,101270.34
2017-08-20T21:24:25.221Z,101276.10
2017-08-20T21:26:54.295Z,101280.63
2017-08-20T21:29:23.356Z,101265.02
2017-08-20T21:31:52.447Z,101265.88
2017-08-20T21:34:21.520Z,101269.70
2017-08-20T21:36:50.575Z,101271.94
2017-08-20T21:39:19.637Z,101270.50
2017-08-20T21:41:48.725Z,101258.67
2017-08-20T21:44:17.777Z,101273.91
2017-08-20T21:46:46.869Z,101268.04
2017-08-20T21:49:15.936Z,101266.67
2017-08-20T21:51:44.998Z,101260.79
2017-08-20T21:54:14.306Z,101265.87
2017-08-20T21:56:43.380Z,101275.75
2017-08-20T21:59:12.457Z,101270.71
2017-08-20T22:01:41.505Z,101272.48
2017-08-20T22:04:10.585Z,101265.47
2017-08-20T22:06:39.672Z,101260.89
2017-08-20T22:09:09.009Z,101254.38
2017-08-20T22:11:38.068Z,101256.39
2017-08-20T22:14:07.148Z,101264.13
2017-08-20T22:16:36.190Z,101261.39
2017-08-20T22:19:05.540Z,101262.59
2017-08-20T22:21:34.584Z,101266.55
2017-08-20T22:24:03.624Z,101256.92
2017-08-20T22:26:32.723Z,101251.88
2017-08-20T22:29:01.811Z,101254.95
2017-08-20T22:31:30.860Z,101254.22
2017-08-20T22:33:59.953Z,101250.45
2017-08-20T22:36:29.004Z,101253.59
2017-08-20T22:38:58.048Z,101257.23
2017-08-20T22:41:27.102Z,101256.99
2017-08-20T22:43:56.186Z,101252.48
2017-08-20T22:46:25.255Z,101245.55
2017-08-20T22:48:54.314Z,101243.77
2017-08-20T22:51:23.415Z,101240.16
2017-08-20T22:53:52.459Z,101230.28
2017-08-20T22:56:21.501Z,101238.80
2017-08-20T22:58:50.604Z,101231.55
2017-08-20T23:01:19.662Z,101238.50
2017-08-20T23:03:48.763Z,101234.45
2017-08-20T23:06:17.812Z,101239.20
2017-08-20T23:08:46.894Z,101241.30
2017-08-20T23:11:15.952Z,101241.16
2017-08-20T23:13:45.001Z,101234.22
2017-08-20T23:16:14.067Z,101235.28
2017-08-20T23:18:43.344Z,101236.25
2017-08-20T23:21:12.397Z,101234.51
2017-08-20T23:23:41.432Z,101234.67
2017-08-20T23:26:10.508Z,101227.19
2017-08-20T23:28:39.592Z,101223.41
2017-08-20T23:31:08.859Z,101223.27
2017-08-20T23:33:37.917Z,101226.73
2017-08-20T23:36:06.949Z,101225.92
2017-08-20T23:38:36.055Z,101221.02
2017-08-20T23:41:05.156Z,101220.38
2017-08-20T23:43:34.185Z,101219.98
2017-08-20T23:46:03.253Z,101216.91
2017-08-20T23:48:32.336Z,101223.27
2017-08-20T23:51:01.402Z,101232.61
2017-08-20T23:53:30.435Z,101239.61
2017-08-20T23:55:59.519Z,101232.61
2017-08-20T23:58:28.563Z,101235.50
